createdAt,value
2016-07-25T00:00:02.252Z,0
2016-07-25T00:01:02.257Z,0
2016-07-25T00:02:03.654Z,0
2016-07-25T00:03:02.238Z,0
2016-07-25T00:04:02.944Z,0
2016-07-25T00:05:02.931Z,0
2016-07-25T00:06:03.635Z,0
2016-07-25T00:07:03.632Z,0
2016-07-25T00:08:02.905Z,0
2016-07-25T00:09:02.916Z,0
2016-07-25T00:10:02.898Z,0
2016-07-25T00:11:02.177Z,0
2016-07-25T00:12:03.589Z,0
2016-07-25T00:13:02.170Z,0
2016-07-25T00:14:03.579Z,0
2016-07-25T00:15:02.857Z,0
2016-07-25T00:16:02.856Z,0
2016-07-25T00:17:02.842Z,0
2016-07-25T00:18:03.599Z,0
2016-07-25T00:19:03.558Z,0
2016-07-25T00:20:02.822Z,0
2016-07-25T00:21:02.822Z,0
2016-07-25T00:22:02.809Z,0
2016-07-25T00:23:03.518Z,0
2016-07-25T00:24:03.500Z,0
2016-07-25T00:25:02.792Z,0
2016-07-25T00:26:02.782Z,0
2016-07-25T00:27:02.779Z,0
2016-07-25T00:28:04.179Z,0
2016-07-25T00:29:02.771Z,0
2016-07-25T00:30:03.459Z,0
2016-07-25T00:31:03.454Z,0
2016-07-25T00:32:02.743Z,0
2016-07-25T00:33:03.479Z,0
2016-07-25T00:34:02.013Z,0
2016-07-25T00:35:02.721Z,0
2016-07-25T00:36:02.707Z,0
2016-07-25T00:37:03.408Z,0
2016-07-25T00:38:02.695Z,0
2016-07-25T00:39:01.979Z,0
2016-07-25T00:40:01.975Z,0
2016-07-25T00:41:02.675Z,0
2016-07-25T00:42:01.958Z,0
2016-07-25T00:43:01.955Z,0
2016-07-25T00:44:02.855Z,0
2016-07-25T00:45:02.650Z,0
2016-07-25T00:46:02.636Z,0
2016-07-25T00:47:02.666Z,0
2016-07-25T00:48:02.626Z,0
2016-07-25T00:49:02.620Z,0
2016-07-25T00:50:03.317Z,0
2016-07-25T00:51:01.898Z,0
2016-07-25T00:52:02.602Z,0
2016-07-25T00:53:02.593Z,0
2016-07-25T00:54:02.576Z,0
2016-07-25T00:55:01.872Z,0
2016-07-25T00:56:03.272Z,0
2016-07-25T00:57:02.562Z,0
2016-07-25T00:58:01.847Z,0
2016-07-25T00:59:02.543Z,0
2016-07-25T01:00:03.240Z,0
2016-07-25T01:01:02.533Z,0
2016-07-25T01:02:03.230Z,0
2016-07-25T01:03:02.516Z,0
2016-07-25T01:04:01.800Z,0
2016-07-25T01:05:01.799Z,0
2016-07-25T01:06:01.792Z,0
2016-07-25T01:07:02.491Z,0
2016-07-25T01:08:02.475Z,0
2016-07-25T01:09:01.766Z,0
2016-07-25T01:10:02.462Z,0
2016-07-25T01:11:02.463Z,0
2016-07-25T01:12:02.449Z,0
2016-07-25T01:13:02.443Z,0
2016-07-25T01:14:02.436Z,0
2016-07-25T01:15:02.430Z,0
2016-07-25T01:16:02.416Z,0
2016-07-25T01:17:02.415Z,0
2016-07-25T01:18:03.109Z,0
2016-07-25T01:19:03.108Z,0
2016-07-25T01:20:02.395Z,0
2016-07-25T01:21:01.679Z,0
2016-07-25T01:22:02.385Z,0
2016-07-25T01:23:03.080Z,0
2016-07-25T01:24:02.373Z,0
2016-07-25T01:25:02.367Z,0
2016-07-25T01:26:02.352Z,0
2016-07-25T01:27:02.344Z,0
2016-07-25T01:28:03.749Z,0
2016-07-25T01:29:02.335Z,0
2016-07-25T01:30:02.320Z,0
2016-07-25T01:31:01.604Z,0
2016-07-25T01:32:01.600Z,0
2016-07-25T01:33:01.591Z,0
2016-07-25T01:34:02.286Z,0
2016-07-25T01:35:02.335Z,0
2016-07-25T01:36:02.276Z,0
2016-07-25T01:37:01.556Z,0
2016-07-25T01:38:01.553Z,0
2016-07-25T01:39:02.957Z,0
2016-07-25T01:40:02.247Z,0
2016-07-25T01:41:02.238Z,0
2016-07-25T01:42:01.524Z,0
2016-07-25T01:43:02.935Z,0
2016-07-25T01:44:01.516Z,0
2016-07-25T01:45:02.917Z,0
2016-07-25T01:46:02.922Z,0
2016-07-25T01:47:02.903Z,0
2016-07-25T01:48:02.906Z,0
2016-07-25T01:49:02.178Z,0
2016-07-25T01:50:02.180Z,0
2016-07-25T01:51:02.875Z,0
2016-07-25T01:52:01.447Z,0
2016-07-25T01:53:02.149Z,0
2016-07-25T01:54:01.431Z,0
2016-07-25T01:55:03.555Z,0
2016-07-25T01:56:02.136Z,0
2016-07-25T01:57:02.119Z,0
2016-07-25T01:58:01.407Z,0
2016-07-25T01:59:02.104Z,0
2016-07-25T02:00:01.393Z,0
2016-07-25T02:01:01.382Z,0
2016-07-25T02:02:02.077Z,0
2016-07-25T02:03:01.367Z,0
2016-07-25T02:04:02.772Z,0
2016-07-25T02:05:02.075Z,0
2016-07-25T02:06:02.761Z,0
2016-07-25T02:07:02.045Z,0
2016-07-25T02:08:01.329Z,0
2016-07-25T02:09:02.737Z,0
2016-07-25T02:10:02.021Z,0
2016-07-25T02:11:01.305Z,0
2016-07-25T02:12:02.713Z,0
2016-07-25T02:13:02.703Z,0
2016-07-25T02:14:02.004Z,0
2016-07-25T02:15:03.400Z,0
2016-07-25T02:16:02.705Z,0
2016-07-25T02:17:01.973Z,0
2016-07-25T02:18:01.966Z,0
2016-07-25T02:19:01.242Z,0
2016-07-25T02:20:01.952Z,0
2016-07-25T02:21:01.237Z,0
2016-07-25T02:22:01.228Z,0
2016-07-25T02:23:01.217Z,0
2016-07-25T02:24:01.921Z,0
2016-07-25T02:25:01.911Z,0
2016-07-25T02:26:02.620Z,0
2016-07-25T02:27:02.604Z,0
2016-07-25T02:28:01.899Z,0
2016-07-25T02:29:01.174Z,0
2016-07-25T02:30:01.875Z,0
2016-07-25T02:31:03.293Z,0
2016-07-25T02:32:01.152Z,0
2016-07-25T02:33:02.566Z,0
2016-07-25T02:34:02.558Z,0
2016-07-25T02:35:01.843Z,0
2016-07-25T02:36:01.829Z,0
2016-07-25T02:37:02.527Z,0
2016-07-25T02:38:01.837Z,0
2016-07-25T02:39:01.809Z,0
2016-07-25T02:40:02.513Z,0
2016-07-25T02:41:01.803Z,0
2016-07-25T02:42:01.804Z,0
2016-07-25T02:43:01.777Z,0
2016-07-25T02:44:02.681Z,0
2016-07-25T02:45:01.760Z,0
2016-07-25T02:46:02.462Z,0
2016-07-25T02:47:01.750Z,0
2016-07-25T02:48:02.452Z,0
2016-07-25T02:49:01.738Z,0
2016-07-25T02:50:01.075Z,0
2016-07-25T02:51:01.721Z,0
2016-07-25T02:52:02.424Z,0
2016-07-25T02:53:01.707Z,0
2016-07-25T02:54:01.007Z,0
2016-07-25T02:55:03.104Z,0
2016-07-25T02:56:01.688Z,0
2016-07-25T02:57:01.669Z,0
2016-07-25T02:58:02.380Z,0
2016-07-25T02:59:02.369Z,0
2016-07-25T03:00:03.068Z,0
2016-07-25T03:01:00.938Z,0
2016-07-25T03:02:01.639Z,0
2016-07-25T03:03:01.636Z,0
2016-07-25T03:04:00.913Z,0
2016-07-25T03:05:00.908Z,0
2016-07-25T03:06:01.610Z,0
2016-07-25T03:07:02.311Z,4
2016-07-25T03:08:01.590Z,4
2016-07-25T03:09:02.295Z,0
2016-07-25T03:10:02.286Z,0
2016-07-25T03:11:02.988Z,4
2016-07-25T03:12:02.262Z,4
2016-07-25T03:13:01.553Z,0
2016-07-25T03:14:01.545Z,4
2016-07-25T03:15:02.250Z,4
2016-07-25T03:16:01.528Z,4
2016-07-25T03:17:01.528Z,4
2016-07-25T03:18:01.509Z,8
2016-07-25T03:19:01.509Z,8
2016-07-25T03:20:01.496Z,8
2016-07-25T03:21:00.785Z,12
2016-07-25T03:22:01.490Z,12
2016-07-25T03:23:01.478Z,12
2016-07-25T03:24:01.464Z,12
2016-07-25T03:25:01.465Z,16
2016-07-25T03:26:01.456Z,20
2016-07-25T03:27:02.161Z,20
2016-07-25T03:28:02.157Z,20
2016-07-25T03:29:02.141Z,24
2016-07-25T03:30:01.419Z,28
2016-07-25T03:31:00.713Z,28
2016-07-25T03:32:02.114Z,28
2016-07-25T03:33:00.693Z,28
2016-07-25T03:34:01.394Z,24
2016-07-25T03:35:01.385Z,28
2016-07-25T03:36:01.382Z,32
2016-07-25T03:37:02.081Z,32
2016-07-25T03:38:01.361Z,40
2016-07-25T03:39:01.364Z,44
2016-07-25T03:40:01.344Z,44
2016-07-25T03:41:02.048Z,52
2016-07-25T03:42:01.334Z,60
2016-07-25T03:43:02.045Z,68
2016-07-25T03:44:00.618Z,80
2016-07-25T03:45:00.710Z,84
2016-07-25T03:46:00.605Z,96
2016-07-25T03:47:02.976Z,108
2016-07-25T03:48:00.580Z,116
2016-07-25T03:49:01.275Z,124
2016-07-25T03:50:02.684Z,132
2016-07-25T03:51:01.983Z,148
2016-07-25T03:52:00.552Z,160
2016-07-25T03:53:00.541Z,172
2016-07-25T03:54:00.531Z,184
2016-07-25T03:55:01.237Z,208
2016-07-25T03:56:00.520Z,224
2016-07-25T03:57:01.931Z,252
2016-07-25T03:58:01.923Z,284
2016-07-25T03:59:00.508Z,308
2016-07-25T04:00:00.501Z,340
2016-07-25T04:01:01.899Z,376
2016-07-25T04:02:01.883Z,420
2016-07-25T04:03:01.175Z,464
2016-07-25T04:04:00.455Z,512
2016-07-25T04:05:01.867Z,556
2016-07-25T04:06:01.147Z,588
2016-07-25T04:07:01.853Z,612
2016-07-25T04:08:01.136Z,636
2016-07-25T04:09:00.431Z,652
2016-07-25T04:10:02.544Z,648
2016-07-25T04:11:01.114Z,656
2016-07-25T04:12:01.823Z,672
2016-07-25T04:13:00.392Z,696
2016-07-25T04:14:00.378Z,728
2016-07-25T04:15:01.101Z,756
2016-07-25T04:16:01.781Z,788
2016-07-25T04:17:02.488Z,824
2016-07-25T04:18:01.763Z,844
2016-07-25T04:19:00.353Z,844
2016-07-25T04:20:01.052Z,848
2016-07-25T04:21:00.330Z,864
2016-07-25T04:22:01.027Z,896
2016-07-25T04:23:00.315Z,932
2016-07-25T04:24:01.722Z,976
2016-07-25T04:25:01.012Z,1024
2016-07-25T04:26:01.001Z,1080
2016-07-25T04:27:01.705Z,1144
2016-07-25T04:28:00.989Z,1212
2016-07-25T04:29:01.688Z,1288
2016-07-25T04:30:00.973Z,1352
2016-07-25T04:31:00.259Z,1404
2016-07-25T04:32:00.249Z,1432
2016-07-25T04:33:00.951Z,1448
2016-07-25T04:34:01.651Z,1468
2016-07-25T04:35:01.639Z,1484
2016-07-25T04:36:00.922Z,1508
2016-07-25T04:37:01.839Z,1544
2016-07-25T04:38:00.916Z,1604
2016-07-25T04:39:00.916Z,1680
2016-07-25T04:40:00.899Z,1756
2016-07-25T04:41:00.196Z,1832
2016-07-25T04:42:01.588Z,1876
2016-07-25T04:43:01.575Z,1856
2016-07-25T04:44:00.864Z,1816
2016-07-25T04:45:00.850Z,1784
2016-07-25T04:46:01.557Z,1756
2016-07-25T04:47:00.842Z,1748
2016-07-25T04:48:01.542Z,1748
2016-07-25T04:49:00.822Z,1748
2016-07-25T04:50:00.821Z,1748
2016-07-25T04:51:01.566Z,1772
2016-07-25T04:52:02.489Z,1812
2016-07-25T04:53:00.084Z,1848
2016-07-25T04:54:00.790Z,1892
2016-07-25T04:55:00.784Z,1940
2016-07-25T04:56:00.979Z,1984
2016-07-25T04:57:01.472Z,2036
2016-07-25T04:58:00.764Z,2088
2016-07-25T04:59:00.043Z,2136
2016-07-25T05:00:00.751Z,2184
2016-07-25T05:01:00.737Z,2228
2016-07-25T05:02:01.440Z,2280
2016-07-25T05:03:01.433Z,2340
2016-07-25T05:04:00.022Z,2400
2016-07-25T05:05:00.713Z,2468
2016-07-25T05:06:00.699Z,2532
2016-07-25T05:07:00.697Z,2576
2016-07-25T05:07:59.979Z,2616
2016-07-25T05:09:01.390Z,2644
2016-07-25T05:10:01.378Z,2656
2016-07-25T05:10:59.959Z,2664
2016-07-25T05:12:00.662Z,2656
2016-07-25T05:13:00.651Z,2648
2016-07-25T05:13:59.967Z,2644
2016-07-25T05:15:01.344Z,2640
2016-07-25T05:16:01.333Z,2640
2016-07-25T05:17:00.620Z,2628
2016-07-25T05:17:59.909Z,2624
2016-07-25T05:19:00.612Z,2624
2016-07-25T05:19:59.890Z,2624
2016-07-25T05:20:59.885Z,2648
2016-07-25T05:22:01.285Z,2676
2016-07-25T05:23:00.577Z,2688
2016-07-25T05:24:00.574Z,2636
2016-07-25T05:25:01.271Z,2564
2016-07-25T05:26:00.552Z,2508
2016-07-25T05:27:00.548Z,2464
2016-07-25T05:28:00.545Z,2448
2016-07-25T05:29:00.533Z,2440
2016-07-25T05:30:01.228Z,2440
2016-07-25T05:31:00.518Z,2436
2016-07-25T05:32:01.222Z,2404
2016-07-25T05:33:00.507Z,2332
2016-07-25T05:34:00.493Z,2288
2016-07-25T05:35:00.496Z,2276
2016-07-25T05:36:01.888Z,2136
2016-07-25T05:37:00.472Z,1904
2016-07-25T05:38:00.463Z,1720
2016-07-25T05:39:00.460Z,1608
2016-07-25T05:40:00.444Z,1540
2016-07-25T05:40:59.738Z,1484
2016-07-25T05:42:01.137Z,1444
2016-07-25T05:43:00.427Z,1400
2016-07-25T05:44:01.125Z,1380
2016-07-25T05:45:00.416Z,1372
2016-07-25T05:46:00.399Z,1384
2016-07-25T05:47:00.402Z,1376
2016-07-25T05:48:00.389Z,1424
2016-07-25T05:49:01.106Z,1560
2016-07-25T05:50:00.379Z,1760
2016-07-25T05:50:59.663Z,2008
2016-07-25T05:52:00.354Z,2296
2016-07-25T05:53:01.061Z,2568
2016-07-25T05:53:59.637Z,2544
2016-07-25T05:54:59.626Z,2464
2016-07-25T05:56:01.039Z,2572
2016-07-25T05:57:00.319Z,2724
2016-07-25T05:57:59.608Z,2924
2016-07-25T05:58:59.597Z,3068
2016-07-25T06:00:00.318Z,3312
2016-07-25T06:00:59.582Z,3428
2016-07-25T06:02:00.295Z,3360
2016-07-25T06:02:59.572Z,3416
2016-07-25T06:04:00.276Z,3216
2016-07-25T06:05:00.968Z,3072
2016-07-25T06:06:00.280Z,3240
2016-07-25T06:06:59.540Z,3408
2016-07-25T06:07:59.532Z,3332
2016-07-25T06:08:59.525Z,3156
2016-07-25T06:09:59.529Z,3116
2016-07-25T06:11:00.238Z,3212
2016-07-25T06:12:00.213Z,3232
2016-07-25T06:13:00.217Z,3112
2016-07-25T06:14:00.912Z,2988
2016-07-25T06:15:00.899Z,2992
2016-07-25T06:16:00.895Z,3092
2016-07-25T06:16:59.473Z,3208
2016-07-25T06:18:00.167Z,3320
2016-07-25T06:19:01.576Z,3480
2016-07-25T06:20:00.166Z,3656
2016-07-25T06:21:00.866Z,3804
2016-07-25T06:22:00.849Z,4148
2016-07-25T06:23:00.837Z,4692
2016-07-25T06:24:00.835Z,5244
2016-07-25T06:25:01.700Z,5752
2016-07-25T06:25:59.419Z,5788
2016-07-25T06:27:00.109Z,5788
2016-07-25T06:28:00.875Z,5772
2016-07-25T06:29:00.096Z,5648
2016-07-25T06:30:01.532Z,5704
2016-07-25T06:31:00.077Z,6072
2016-07-25T06:32:00.071Z,6616
2016-07-25T06:33:00.072Z,6768
2016-07-25T06:34:00.766Z,6748
2016-07-25T06:35:00.056Z,6768
2016-07-25T06:36:00.755Z,6532
2016-07-25T06:37:00.800Z,6256
2016-07-25T06:38:00.812Z,6352
2016-07-25T06:38:59.316Z,6660
2016-07-25T06:39:59.315Z,6688
2016-07-25T06:41:00.003Z,6652
2016-07-25T06:42:00.003Z,6596
2016-07-25T06:42:59.288Z,6356
2016-07-25T06:44:00.956Z,6524
2016-07-25T06:45:00.687Z,6640
2016-07-25T06:45:59.268Z,6232
2016-07-25T06:46:59.263Z,5976
2016-07-25T06:48:00.012Z,5876
2016-07-25T06:48:59.953Z,5808
2016-07-25T06:50:00.695Z,5700
2016-07-25T06:50:59.948Z,5840
2016-07-25T06:51:59.988Z,6284
2016-07-25T06:52:59.224Z,6940
2016-07-25T06:54:00.625Z,7248
2016-07-25T06:54:59.206Z,7028
2016-07-25T06:55:59.917Z,6736
2016-07-25T06:56:59.919Z,6792
2016-07-25T06:58:00.593Z,7500
2016-07-25T06:58:59.178Z,8048
2016-07-25T07:00:00.589Z,8032
2016-07-25T07:01:00.073Z,7764
2016-07-25T07:01:59.862Z,7560
2016-07-25T07:02:59.859Z,7852
2016-07-25T07:04:00.558Z,8504
2016-07-25T07:05:01.403Z,8276
2016-07-25T07:06:00.558Z,8352
2016-07-25T07:06:59.831Z,8440
2016-07-25T07:08:01.239Z,8204
2016-07-25T07:09:00.029Z,8444
2016-07-25T07:10:00.515Z,8496
2016-07-25T07:11:00.518Z,8452
2016-07-25T07:11:59.090Z,8528
2016-07-25T07:12:59.791Z,8828
2016-07-25T07:13:59.784Z,8928
2016-07-25T07:15:00.486Z,9068
2016-07-25T07:15:59.063Z,9292
2016-07-25T07:16:59.764Z,9372
2016-07-25T07:18:00.463Z,9272
2016-07-25T07:18:59.762Z,8944
2016-07-25T07:19:59.046Z,8580
2016-07-25T07:21:00.447Z,8052
2016-07-25T07:21:59.727Z,7416
2016-07-25T07:23:59.723Z,6008
2016-07-25T07:25:00.417Z,5280
2016-07-25T07:26:00.421Z,4748
2016-07-25T07:27:01.109Z,4580
2016-07-25T07:27:59.691Z,4616
2016-07-25T07:29:01.101Z,4768
2016-07-25T07:29:58.979Z,5128
2016-07-25T07:30:58.966Z,5796
2016-07-25T07:31:58.962Z,6872
2016-07-25T07:32:59.660Z,7772
2016-07-25T07:33:59.660Z,8424
2016-07-25T07:34:58.950Z,10900
2016-07-25T07:35:58.936Z,20288
2016-07-25T07:36:58.938Z,29568
2016-07-25T07:37:58.927Z,20320
2016-07-25T07:39:00.333Z,29024
2016-07-25T07:39:58.920Z,36032
2016-07-25T07:41:00.668Z,35296
2016-07-25T07:42:01.036Z,32320
2016-07-25T07:42:58.894Z,29888
2016-07-25T07:44:00.324Z,27232
2016-07-25T07:44:59.592Z,25216
2016-07-25T07:46:00.290Z,24704
2016-07-25T07:47:00.284Z,19648
2016-07-25T07:47:58.865Z,26016
2016-07-25T07:48:59.564Z,14920
2016-07-25T07:50:00.284Z,15744
2016-07-25T07:50:59.553Z,14552
2016-07-25T07:51:58.855Z,9756
2016-07-25T07:52:59.548Z,7856
2016-07-25T07:53:58.835Z,14436
2016-07-25T07:54:59.529Z,15488
2016-07-25T07:56:00.244Z,10792
2016-07-25T07:56:59.528Z,23712
2016-07-25T07:57:59.518Z,31488
2016-07-25T07:59:58.808Z,37216
2016-07-25T08:00:59.515Z,36032
2016-07-25T08:01:59.513Z,35008
2016-07-25T08:04:00.215Z,37664
2016-07-25T08:05:00.201Z,36416
2016-07-25T08:06:00.189Z,34016
2016-07-25T08:06:58.769Z,29280
2016-07-25T08:07:58.774Z,32096
2016-07-25T08:09:00.181Z,32800
2016-07-25T08:09:59.469Z,33952
2016-07-25T08:11:00.876Z,35840
2016-07-25T08:11:59.463Z,36192
2016-07-25T08:12:59.470Z,35936
2016-07-25T08:14:00.164Z,31648
2016-07-25T08:14:59.451Z,29536
2016-07-25T08:15:58.737Z,28224
2016-07-25T08:16:59.443Z,21216
2016-07-25T08:17:59.437Z,20064
2016-07-25T08:18:59.488Z,11468
2016-07-25T08:19:59.433Z,10072
2016-07-25T08:20:59.428Z,10336
2016-07-25T08:21:59.433Z,12376
2016-07-25T08:22:59.417Z,10776
2016-07-25T08:23:59.424Z,10544
2016-07-25T08:24:59.413Z,10592
2016-07-25T08:25:59.415Z,11228
2016-07-25T08:27:00.120Z,12580
2016-07-25T08:27:58.687Z,12268
2016-07-25T08:29:00.813Z,11200
2016-07-25T08:29:59.396Z,10896
2016-07-25T08:30:59.389Z,11512
2016-07-25T08:31:59.382Z,12040
2016-07-25T08:32:59.397Z,16768
2016-07-25T08:34:00.090Z,13108
2016-07-25T08:35:00.557Z,14520
2016-07-25T08:35:59.365Z,13072
2016-07-25T08:37:00.070Z,10504
2016-07-25T08:38:00.770Z,36832
2016-07-25T08:39:00.058Z,17216
2016-07-25T08:39:58.638Z,15672
2016-07-25T08:40:59.354Z,12024
2016-07-25T08:42:00.041Z,12056
2016-07-25T08:42:59.332Z,13076
2016-07-25T08:44:00.435Z,14948
2016-07-25T08:44:58.616Z,16320
2016-07-25T08:46:00.025Z,16700
2016-07-25T08:46:59.316Z,22304
2016-07-25T08:47:58.605Z,15684
2016-07-25T08:48:59.316Z,13960
2016-07-25T08:49:59.303Z,13396
2016-07-25T08:50:58.594Z,14096
2016-07-25T08:51:59.287Z,15264
2016-07-25T08:52:59.998Z,15548
2016-07-25T08:53:59.994Z,19136
2016-07-25T08:54:58.579Z,15488
2016-07-25T08:55:59.277Z,15188
2016-07-25T08:56:59.265Z,16100
2016-07-25T08:57:59.969Z,17760
2016-07-25T08:58:59.968Z,18272
2016-07-25T08:59:58.546Z,17056
2016-07-25T09:00:59.958Z,13920
2016-07-25T09:01:59.952Z,13916
2016-07-25T09:02:59.945Z,13964
2016-07-25T09:03:58.528Z,13784
2016-07-25T09:04:59.228Z,13196
2016-07-25T09:06:00.644Z,12920
2016-07-25T09:07:00.023Z,12956
2016-07-25T09:07:59.935Z,12244
2016-07-25T09:08:59.210Z,12208
2016-07-25T09:09:59.951Z,13720
2016-07-25T09:10:59.215Z,10992
2016-07-25T09:11:58.492Z,11072
2016-07-25T09:12:59.185Z,8904
2016-07-25T09:13:59.255Z,8964
2016-07-25T09:14:59.175Z,8916
2016-07-25T09:15:59.883Z,8292
2016-07-25T09:16:58.664Z,10084
2016-07-25T09:17:59.870Z,9728
2016-07-25T09:18:58.507Z,11048
2016-07-25T09:20:00.569Z,9696
2016-07-25T09:20:59.148Z,8200
2016-07-25T09:21:59.144Z,6768
2016-07-25T09:22:58.429Z,6648
2016-07-25T09:23:59.131Z,55808
2016-07-25T09:24:59.148Z,55104
2016-07-25T09:25:59.118Z,15004
2016-07-25T09:26:59.833Z,35456
2016-07-25T09:27:58.405Z,14784
2016-07-25T09:28:59.814Z,16760
2016-07-25T09:29:59.106Z,17720
2016-07-25T09:30:59.808Z,21440
2016-07-25T09:31:58.385Z,26112
2016-07-25T09:32:59.795Z,22112
2016-07-25T09:33:59.084Z,19712
2016-07-25T09:34:59.083Z,25664
2016-07-25T09:35:58.366Z,15584
2016-07-25T09:36:59.069Z,24224
2016-07-25T09:37:59.059Z,26272
2016-07-25T09:38:59.766Z,17952
2016-07-25T09:39:58.346Z,15356
2016-07-25T09:40:58.344Z,10140
2016-07-25T09:41:59.045Z,10344
2016-07-25T09:42:58.336Z,9004
2016-07-25T09:43:59.046Z,13120
2016-07-25T09:44:58.331Z,10368
2016-07-25T09:45:59.752Z,10408
2016-07-25T09:46:58.317Z,10040
2016-07-25T09:47:59.018Z,15992
2016-07-25T09:48:59.020Z,12032
2016-07-25T09:49:59.025Z,7996
2016-07-25T09:50:58.297Z,8576
2016-07-25T09:51:58.997Z,8108
2016-07-25T09:52:58.288Z,7932
2016-07-25T09:53:59.002Z,11812
2016-07-25T09:54:59.688Z,12720
2016-07-25T09:55:58.978Z,14064
2016-07-25T09:56:58.973Z,12192
2016-07-25T09:57:59.680Z,12700
2016-07-25T09:58:58.260Z,9972
2016-07-25T09:59:58.961Z,6532
2016-07-25T10:00:58.245Z,6272
2016-07-25T10:01:58.947Z,7188
2016-07-25T10:03:00.374Z,39776
2016-07-25T10:03:58.231Z,15808
2016-07-25T10:04:58.431Z,6480
2016-07-25T10:05:59.634Z,13948
2016-07-25T10:06:58.927Z,9156
2016-07-25T10:07:59.628Z,9296
2016-07-25T10:08:58.922Z,10952
2016-07-25T10:09:58.911Z,18252
2016-07-25T10:10:58.196Z,35680
2016-07-25T10:11:58.902Z,10640
2016-07-25T10:12:58.907Z,28256
2016-07-25T10:13:58.888Z,21568
2016-07-25T10:14:58.887Z,17120
2016-07-25T10:15:58.884Z,12704
2016-07-25T10:16:59.586Z,12996
2016-07-25T10:17:58.161Z,10328
2016-07-25T10:18:59.588Z,11916
2016-07-25T10:19:59.574Z,60544
2016-07-25T10:20:58.160Z,51872
2016-07-25T10:21:58.163Z,21536
2016-07-25T10:22:59.561Z,84128
2016-07-25T10:23:58.844Z,46304
2016-07-25T10:24:58.850Z,39232
2016-07-25T10:25:58.843Z,14988
2016-07-25T10:26:58.840Z,12808
2016-07-25T10:27:58.830Z,59712
2016-07-25T10:29:00.249Z,49280
2016-07-25T10:30:00.242Z,52608
2016-07-25T10:30:58.829Z,63328
2016-07-25T10:31:58.827Z,72704
2016-07-25T10:33:00.234Z,84032
2016-07-25T10:33:58.828Z,88192
2016-07-25T10:34:58.126Z,84448
2016-07-25T10:35:58.116Z,80384
2016-07-25T10:36:58.119Z,15384
2016-07-25T10:37:58.822Z,70432
2016-07-25T10:38:59.529Z,46208
2016-07-25T10:39:59.528Z,11168
2016-07-25T10:41:00.233Z,7960
2016-07-25T10:42:00.236Z,7480
2016-07-25T10:42:59.529Z,8428
2016-07-25T10:43:58.825Z,15096
2016-07-25T10:44:59.036Z,78688
2016-07-25T10:45:58.823Z,74688
2016-07-25T10:46:58.113Z,72128
2016-07-25T10:47:59.532Z,75712
2016-07-25T10:48:58.821Z,79360
2016-07-25T10:49:59.526Z,85824
2016-07-25T10:50:59.534Z,92288
2016-07-25T10:51:59.549Z,98496
2016-07-25T10:52:58.114Z,102304
2016-07-25T10:53:59.529Z,102560
2016-07-25T10:54:59.530Z,100576
2016-07-25T10:55:58.846Z,97056
2016-07-25T10:56:58.116Z,94400
2016-07-25T10:57:58.824Z,98368
2016-07-25T10:58:58.835Z,98496
2016-07-25T10:59:58.839Z,102304
2016-07-25T11:00:58.140Z,100608
2016-07-25T11:01:59.537Z,94016
2016-07-25T11:02:58.838Z,89664
2016-07-25T11:03:58.852Z,85792
2016-07-25T11:05:00.268Z,77600
2016-07-25T11:05:58.853Z,72544
2016-07-25T11:06:58.846Z,71808
2016-07-25T11:07:58.860Z,74720
2016-07-25T11:08:58.140Z,86592
2016-07-25T11:09:58.852Z,55968
2016-07-25T11:10:58.151Z,15100
2016-07-25T11:11:58.861Z,82592
2016-07-25T11:12:58.153Z,84544
2016-07-25T11:13:58.160Z,62464
2016-07-25T11:14:58.164Z,56704
2016-07-25T11:15:58.879Z,15532
2016-07-25T11:16:58.889Z,72864
2016-07-25T11:17:59.582Z,18912
2016-07-25T11:18:58.883Z,16984
2016-07-25T11:19:59.588Z,90496
2016-07-25T11:20:58.887Z,18720
2016-07-25T11:21:58.887Z,97952
2016-07-25T11:22:59.594Z,85664
2016-07-25T11:23:59.598Z,15712
2016-07-25T11:24:58.191Z,40000
2016-07-25T11:25:58.897Z,89504
2016-07-25T11:26:59.603Z,89088
2016-07-25T11:27:58.199Z,92064
2016-07-25T11:28:58.908Z,99392
2016-07-25T11:29:58.197Z,105376
2016-07-25T11:30:58.199Z,108704
2016-07-25T11:31:59.615Z,111872
2016-07-25T11:32:58.915Z,106176
2016-07-25T11:33:58.908Z,99808
2016-07-25T11:34:58.208Z,33920
2016-07-25T11:35:58.218Z,81664
2016-07-25T11:36:58.929Z,74720
2016-07-25T11:37:58.219Z,68448
2016-07-25T11:38:58.924Z,68096
2016-07-25T11:39:58.236Z,71936
2016-07-25T11:40:58.935Z,78048
2016-07-25T11:41:58.230Z,88352
2016-07-25T11:42:58.236Z,96544
2016-07-25T11:43:59.684Z,96672
2016-07-25T11:44:59.670Z,47296
2016-07-25T11:45:58.973Z,32800
2016-07-25T11:46:58.957Z,68032
2016-07-25T11:47:59.687Z,74784
2016-07-25T11:48:58.274Z,13324
2016-07-25T11:49:58.970Z,9656
2016-07-25T11:50:58.972Z,8832
2016-07-25T11:51:58.268Z,9292
2016-07-25T11:52:58.993Z,9452
2016-07-25T11:53:59.684Z,8900
2016-07-25T11:54:58.984Z,8332
2016-07-25T11:55:59.042Z,7980
2016-07-25T11:56:58.988Z,7880
2016-07-25T11:57:58.286Z,8188
2016-07-25T11:58:59.712Z,8792
2016-07-25T11:59:58.297Z,9388
2016-07-25T12:00:58.999Z,9752
2016-07-25T12:01:58.292Z,10060
2016-07-25T12:02:59.004Z,10304
2016-07-25T12:03:59.007Z,9980
2016-07-25T12:04:58.295Z,9660
2016-07-25T12:06:00.424Z,9536
2016-07-25T12:06:59.724Z,9392
2016-07-25T12:07:59.713Z,9344
2016-07-25T12:08:59.203Z,9500
2016-07-25T12:09:59.711Z,9700
2016-07-25T12:10:59.702Z,9828
2016-07-25T12:11:59.703Z,10100
2016-07-25T12:12:58.996Z,10400
2016-07-25T12:13:59.706Z,10748
2016-07-25T12:14:58.993Z,11280
2016-07-25T12:15:58.988Z,11820
2016-07-25T12:16:58.989Z,12300
2016-07-25T12:17:58.980Z,13096
2016-07-25T12:18:59.695Z,14288
2016-07-25T12:19:59.033Z,14936
2016-07-25T12:21:00.421Z,15864
2016-07-25T12:21:58.984Z,15864
2016-07-25T12:22:59.677Z,17536
2016-07-25T12:23:58.972Z,15496
2016-07-25T12:24:58.980Z,14804
2016-07-25T12:25:59.678Z,14400
2016-07-25T12:26:58.985Z,14256
2016-07-25T12:27:59.672Z,14204
2016-07-25T12:28:59.663Z,13548
2016-07-25T12:29:58.953Z,13452
2016-07-25T12:30:59.658Z,13572
2016-07-25T12:31:58.945Z,13568
2016-07-25T12:32:58.946Z,13564
2016-07-25T12:33:59.664Z,13956
2016-07-25T12:34:58.975Z,14800
2016-07-25T12:35:59.639Z,17024
2016-07-25T12:36:58.221Z,20480
2016-07-25T12:37:58.921Z,24832
2016-07-25T12:38:59.625Z,19040
2016-07-25T12:39:58.917Z,15812
2016-07-25T12:40:58.930Z,14456
2016-07-25T12:42:00.343Z,13544
2016-07-25T12:42:58.908Z,12836
2016-07-25T12:43:59.617Z,12416
2016-07-25T12:44:59.808Z,12200
2016-07-25T12:45:59.612Z,12352
2016-07-25T12:46:58.899Z,12768
2016-07-25T12:47:59.096Z,13240
2016-07-25T12:48:59.597Z,14008
2016-07-25T12:50:00.293Z,15112
2016-07-25T12:50:59.598Z,15872
2016-07-25T12:51:58.950Z,17344
2016-07-25T12:52:58.903Z,14412
2016-07-25T12:53:58.867Z,14728
2016-07-25T12:54:58.861Z,12000
2016-07-25T12:56:00.547Z,10056
2016-07-25T12:56:59.826Z,8756
2016-07-25T12:57:59.558Z,8584
2016-07-25T12:59:00.257Z,7392
2016-07-25T12:59:58.150Z,6772
2016-07-25T13:00:59.546Z,5672
2016-07-25T13:01:59.539Z,4548
2016-07-25T13:02:58.152Z,3780
2016-07-25T13:03:59.550Z,2960
2016-07-25T13:04:58.823Z,2244
2016-07-25T13:05:58.822Z,1904
2016-07-25T13:06:59.526Z,1776
2016-07-25T13:07:58.156Z,1644
2016-07-25T13:08:59.539Z,1636
2016-07-25T13:09:58.809Z,1740
2016-07-25T13:10:58.092Z,1840
2016-07-25T13:12:00.214Z,1972
2016-07-25T13:12:58.798Z,2116
2016-07-25T13:13:59.500Z,2224
2016-07-25T13:14:58.071Z,2320
2016-07-25T13:15:58.768Z,2472
2016-07-25T13:16:58.774Z,2684
2016-07-25T13:18:00.185Z,2996
2016-07-25T13:18:58.758Z,3304
2016-07-25T13:19:58.757Z,3644
2016-07-25T13:21:00.171Z,3916
2016-07-25T13:21:58.050Z,4188
2016-07-25T13:22:58.738Z,4564
2016-07-25T13:23:58.737Z,4968
2016-07-25T13:24:58.727Z,5336
2016-07-25T13:25:58.024Z,5636
2016-07-25T13:26:59.424Z,5864
2016-07-25T13:27:58.713Z,6212
2016-07-25T13:28:57.999Z,6648
2016-07-25T13:29:58.697Z,6880
2016-07-25T13:30:58.691Z,6920
2016-07-25T13:31:58.702Z,7004
2016-07-25T13:32:59.429Z,7196
2016-07-25T13:33:57.978Z,7344
2016-07-25T13:34:58.673Z,7472